Time;durP1;ratioP1;P1;durP2;ratioP2;P2;SDS_P1;SDS_P2;PMS_P1;PMS_P2;Temp;Humidity;BMP_temperature;BMP_pressure;BME280_temperature;BME280_humidity;BME280_pressure;Samples;Min_cycle;Max_cycle;Signal;HPM_P1;HPM_P2
2021/03/10 00:01:57;;;;;;;12.60;7.97;;;;;;;;;;5096155;28;20108;-74
2021/03/10 00:04:24;;;;;;;14.73;8.88;;;;;;;;;;5096387;28;20046;-74
2021/03/10 00:06:50;;;;;;;15.20;7.70;;;;;;;;;;5095781;28;20428;-74
2021/03/10 00:09:16;;;;;;;14.15;7.90;;;;;;;;;;5096006;28;20020;-74
2021/03/10 00:11:42;;;;;;;12.77;7.97;;;;;;;;;;5095908;28;20403;-74
2021/03/10 00:14:08;;;;;;;15.95;8.02;;;;;;;;;;5094158;28;20027;-74
2021/03/10 00:16:35;;;;;;;14.38;8.20;;;;;;;;;;5096038;28;20495;-74
2021/03/10 00:19:01;;;;;;;16.80;9.23;;;;;;;;;;5095871;28;20036;-74
2021/03/10 00:21:27;;;;;;;13.90;7.65;;;;;;;;;;5095124;28;20047;-74
2021/03/10 00:23:53;;;;;;;16.13;8.60;;;;;;;;;;5095624;28;20063;-74
2021/03/10 00:26:19;;;;;;;14.40;7.82;;;;;;;;;;5095711;28;20395;-74
2021/03/10 00:28:46;;;;;;;13.52;7.85;;;;;;;;;;5095250;28;20593;-74
2021/03/10 00:31:12;;;;;;;11.95;7.00;;;;;;;;;;5095568;28;20024;-74
2021/03/10 00:33:38;;;;;;;14.05;7.97;;;;;;;;;;5095066;28;20102;-75
2021/03/10 00:36:04;;;;;;;12.60;7.57;;;;;;;;;;5095626;28;20560;-74
2021/03/10 00:38:30;;;;;;;13.57;7.97;;;;;;;;;;5095621;28;20028;-74
2021/03/10 00:40:57;;;;;;;13.93;8.50;;;;;;;;;;5094932;28;20539;-74
2021/03/10 00:43:23;;;;;;;12.27;7.80;;;;;;;;;;5095359;28;20032;-74
2021/03/10 00:45:49;;;;;;;14.77;8.23;;;;;;;;;;5095316;28;20052;-74
2021/03/10 00:48:15;;;;;;;13.32;8.60;;;;;;;;;;5094882;28;20020;-74
2021/03/10 00:50:41;;;;;;;12.35;7.38;;;;;;;;;;5095235;28;20035;-74
2021/03/10 00:53:07;;;;;;;15.55;8.30;;;;;;;;;;5095021;28;20024;-74
2021/03/10 00:55:34;;;;;;;15.70;8.15;;;;;;;;;;5094953;28;20469;-74
2021/03/10 00:58:00;;;;;;;10.95;6.95;;;;;;;;;;5095252;28;20028;-74
2021/03/10 01:00:26;;;;;;;12.02;6.38;;;;;;;;;;5094941;28;20103;-74
2021/03/10 01:02:52;;;;;;;14.77;8.05;;;;;;;;;;5094662;28;20028;-74
2021/03/10 01:05:18;;;;;;;13.48;8.05;;;;;;;;;;5094966;28;20048;-74
2021/03/10 01:07:45;;;;;;;14.35;7.88;;;;;;;;;;5094906;28;20384;-74
2021/03/10 01:10:12;;;;;;;19.17;9.95;;;;;;;;;;5094356;28;20024;-74
2021/03/10 01:12:38;;;;;;;14.38;7.80;;;;;;;;;;5094623;28;20099;-74
2021/03/10 01:15:08;;;;;;;12.98;7.40;;;;;;;;;;5094943;28;20020;-74
2021/03/10 01:17:34;;;;;;;12.85;7.35;;;;;;;;;;5094356;28;20028;-74
2021/03/10 01:20:01;;;;;;;13.88;7.22;;;;;;;;;;5094397;28;20044;-74
2021/03/10 01:22:27;;;;;;;21.55;10.70;;;;;;;;;;5094627;28;20164;-74
2021/03/10 01:24:53;;;;;;;24.52;12.05;;;;;;;;;;5094195;28;20024;-74
2021/03/10 01:27:19;;;;;;;16.52;10.32;;;;;;;;;;5094445;28;20028;-74
2021/03/10 01:29:46;;;;;;;14.85;9.43;;;;;;;;;;5094522;28;20384;-74
2021/03/10 01:32:12;;;;;;;14.77;8.13;;;;;;;;;;5094036;28;20024;-74
2021/03/10 01:34:39;;;;;;;15.40;10.00;;;;;;;;;;5094595;28;20037;-75
2021/03/10 01:37:05;;;;;;;11.77;7.53;;;;;;;;;;5093983;28;20024;-75
2021/03/10 01:39:31;;;;;;;13.43;8.40;;;;;;;;;;5094231;28;20035;-74
2021/03/10 01:41:58;;;;;;;20.50;12.93;;;;;;;;;;5094182;28;20429;-74
2021/03/10 01:44:24;;;;;;;14.10;7.75;;;;;;;;;;5093693;28;20030;-74
2021/03/10 01:46:50;;;;;;;19.60;11.43;;;;;;;;;;5094111;28;20028;-74
2021/03/10 01:49:17;;;;;;;12.95;7.60;;;;;;;;;;5094027;28;20020;-74
2021/03/10 01:51:44;;;;;;;10.52;6.40;;;;;;;;;;5093705;28;20099;-74
2021/03/10 01:54:11;;;;;;;11.80;7.07;;;;;;;;;;5094037;28;20501;-74
2021/03/10 01:56:37;;;;;;;16.52;9.55;;;;;;;;;;5094086;28;20058;-74
2021/03/10 01:59:03;;;;;;;13.20;9.45;;;;;;;;;;5093549;28;20020;-75
2021/03/10 02:01:30;;;;;;;12.30;7.93;;;;;;;;;;5093782;28;20032;-75
2021/03/10 02:03:56;;;;;;;13.32;7.43;;;;;;;;;;5093445;28;20494;-74
2021/03/10 02:06:29;;;;;;;13.38;8.40;;;;;;;;;;5092864;28;20100;-74
2021/03/10 02:09:00;;;;;;;12.90;7.57;;;;;;;;;;5093738;28;20020;-74
2021/03/10 02:11:29;;;;;;;10.80;6.22;;;;;;;;;;5092444;28;20360;-77
2021/03/10 02:14:07;;;;;;;10.68;6.53;;;;;;;;;;5093442;28;20026;-75
2021/03/10 02:16:33;;;;;;;10.65;6.30;;;;;;;;;;5093769;28;20024;-75
2021/03/10 02:19:18;;;;;;;9.90;6.10;;;;;;;;;;5093572;28;20020;-73
2021/03/10 02:21:49;;;;;;;14.32;6.55;;;;;;;;;;5093244;28;20046;-72
2021/03/10 02:24:16;;;;;;;11.18;6.05;;;;;;;;;;5093329;28;20069;-75
2021/03/10 02:26:45;;;;;;;9.85;6.07;;;;;;;;;;5092931;28;20036;-75
2021/03/10 02:29:15;;;;;;;8.23;5.32;;;;;;;;;;5093283;28;20031;-75
2021/03/10 02:31:47;;;;;;;12.20;6.38;;;;;;;;;;5093380;28;20468;-75
2021/03/10 02:34:14;;;;;;;11.90;6.60;;;;;;;;;;5092950;28;20024;-75
2021/03/10 02:36:40;;;;;;;10.02;6.30;;;;;;;;;;5093269;28;20019;-76
2021/03/10 02:39:08;;;;;;;10.90;6.03;;;;;;;;;;5093114;28;20443;-76
2021/03/10 02:41:34;;;;;;;11.02;6.65;;;;;;;;;;5092621;28;20082;-73
2021/03/10 02:44:02;;;;;;;9.57;5.85;;;;;;;;;;5093114;28;20039;-72
2021/03/10 02:46:30;;;;;;;9.95;5.97;;;;;;;;;;5092987;28;20400;-74
2021/03/10 02:48:56;;;;;;;12.50;6.43;;;;;;;;;;5092611;28;20016;-75
2021/03/10 02:51:23;;;;;;;11.55;5.65;;;;;;;;;;5093060;28;20484;-75
2021/03/10 02:53:49;;;;;;;11.20;5.57;;;;;;;;;;5093144;28;20103;-75
2021/03/10 02:56:16;;;;;;;11.52;6.93;;;;;;;;;;5092525;28;20047;-75
2021/03/10 02:58:42;;;;;;;11.55;7.13;;;;;;;;;;5092776;28;20023;-75
2021/03/10 03:01:10;;;;;;;12.18;6.40;;;;;;;;;;5092821;28;20028;-76
2021/03/10 03:03:36;;;;;;;12.38;6.00;;;;;;;;;;5092474;28;20016;-75
2021/03/10 03:06:02;;;;;;;12.65;7.63;;;;;;;;;;5092736;28;20090;-75
2021/03/10 03:08:29;;;;;;;12.82;7.65;;;;;;;;;;5092298;28;20044;-75
2021/03/10 03:10:56;;;;;;;13.13;7.03;;;;;;;;;;5092614;28;20050;-73
2021/03/10 03:13:22;;;;;;;12.52;7.18;;;;;;;;;;5092985;28;20091;-73
2021/03/10 03:15:56;;;;;;;11.23;6.45;;;;;;;;;;5092124;28;20024;-73
2021/03/10 03:18:22;;;;;;;13.15;7.07;;;;;;;;;;5092947;28;20020;-73
2021/03/10 03:20:49;;;;;;;11.70;6.50;;;;;;;;;;5092303;28;20109;-73
2021/03/10 03:23:17;;;;;;;10.82;6.38;;;;;;;;;;5092216;28;20026;-73
2021/03/10 03:25:43;;;;;;;10.90;6.75;;;;;;;;;;5092383;28;20499;-73
2021/03/10 03:28:11;;;;;;;11.73;6.68;;;;;;;;;;5092481;28;20486;-73
2021/03/10 03:30:38;;;;;;;10.38;6.38;;;;;;;;;;5092078;28;20023;-73
2021/03/10 03:33:09;;;;;;;9.55;6.20;;;;;;;;;;5092881;28;20029;-73
2021/03/10 03:35:35;;;;;;;12.00;7.28;;;;;;;;;;5092587;28;20020;-73
2021/03/10 03:38:03;;;;;;;15.57;7.20;;;;;;;;;;5091955;28;20235;-74
2021/03/10 03:40:29;;;;;;;12.02;7.43;;;;;;;;;;5092214;28;20468;-74
2021/03/10 03:42:55;;;;;;;12.45;7.07;;;;;;;;;;5092336;28;20032;-74
2021/03/10 03:45:22;;;;;;;9.90;6.25;;;;;;;;;;5091838;28;20020;-74
2021/03/10 03:47:57;;;;;;;12.40;7.18;;;;;;;;;;5092633;28;20431;-74
2021/03/10 03:50:24;;;;;;;11.63;7.15;;;;;;;;;;5092337;28;20028;-73
2021/03/10 03:52:51;;;;;;;12.48;7.72;;;;;;;;;;5092335;28;20380;-74
2021/03/10 03:55:17;;;;;;;13.15;8.48;;;;;;;;;;5092330;28;20026;-74
2021/03/10 03:57:43;;;;;;;16.23;8.60;;;;;;;;;;5091802;28;20020;-74
2021/03/10 04:00:12;;;;;;;13.43;8.18;;;;;;;;;;5092143;28;20048;-74
2021/03/10 04:02:38;;;;;;;14.77;8.38;;;;;;;;;;5092210;28;20088;-74
2021/03/10 04:05:05;;;;;;;16.77;8.93;;;;;;;;;;5091830;28;20415;-74
2021/03/10 04:07:31;;;;;;;19.40;9.43;;;;;;;;;;5092250;28;20032;-73
2021/03/10 04:09:57;;;;;;;14.07;8.82;;;;;;;;;;5092253;28;20020;-74
2021/03/10 04:12:23;;;;;;;17.88;9.75;;;;;;;;;;5090595;28;20491;-74
2021/03/10 04:14:50;;;;;;;14.45;9.15;;;;;;;;;;5092105;28;20031;-73
2021/03/10 04:17:16;;;;;;;17.17;10.32;;;;;;;;;;5092071;28;20020;-74
2021/03/10 04:19:43;;;;;;;19.08;9.50;;;;;;;;;;5091514;28;20024;-73
2021/03/10 04:22:09;;;;;;;13.70;9.25;;;;;;;;;;5092043;28;20426;-74
2021/03/10 04:24:35;;;;;;;14.13;8.82;;;;;;;;;;5091970;28;20020;-74
2021/03/10 04:27:01;;;;;;;16.25;10.20;;;;;;;;;;5091540;28;20029;-74
2021/03/10 04:29:28;;;;;;;16.17;9.88;;;;;;;;;;5095003;28;20022;-74
2021/03/10 04:31:54;;;;;;;16.85;9.20;;;;;;;;;;5095815;28;20023;-74
2021/03/10 04:34:20;;;;;;;20.52;9.07;;;;;;;;;;5095226;28;20016;-74
2021/03/10 04:36:46;;;;;;;16.70;9.35;;;;;;;;;;5095509;28;20036;-74
2021/03/10 04:39:12;;;;;;;13.32;8.63;;;;;;;;;;5095443;28;20024;-75
2021/03/10 04:41:38;;;;;;;15.32;8.00;;;;;;;;;;5095024;28;20082;-75
2021/03/10 04:44:05;;;;;;;12.50;8.20;;;;;;;;;;5095404;28;20085;-74
2021/03/10 04:46:31;;;;;;;13.18;7.47;;;;;;;;;;5095406;28;20106;-74
2021/03/10 04:48:57;;;;;;;14.90;9.25;;;;;;;;;;5095226;28;20046;-74
2021/03/10 04:51:23;;;;;;;32.53;18.83;;;;;;;;;;5095391;28;20028;-74
2021/03/10 04:53:49;;;;;;;30.00;19.45;;;;;;;;;;5095083;28;20023;-73
2021/03/10 04:56:16;;;;;;;17.25;12.00;;;;;;;;;;5095130;28;20048;-74
2021/03/10 04:58:42;;;;;;;17.05;10.77;;;;;;;;;;5095040;28;20024;-74
2021/03/10 05:01:08;;;;;;;18.52;11.05;;;;;;;;;;5094824;28;20107;-75
2021/03/10 05:03:34;;;;;;;25.70;15.90;;;;;;;;;;5095146;28;20024;-75
2021/03/10 05:06:00;;;;;;;21.23;14.20;;;;;;;;;;5094974;28;20035;-74
2021/03/10 05:08:26;;;;;;;19.17;12.60;;;;;;;;;;5094527;28;20016;-75
2021/03/10 05:10:53;;;;;;;23.90;15.75;;;;;;;;;;5095139;28;20020;-75
2021/03/10 05:13:19;;;;;;;15.52;8.93;;;;;;;;;;5095083;28;20145;-75
2021/03/10 05:15:45;;;;;;;17.33;10.38;;;;;;;;;;5094340;28;20488;-75
2021/03/10 05:18:11;;;;;;;15.75;9.82;;;;;;;;;;5094843;28;20421;-76
2021/03/10 05:20:37;;;;;;;17.08;10.07;;;;;;;;;;5094370;28;20055;-76
2021/03/10 05:23:03;;;;;;;20.42;11.25;;;;;;;;;;5094338;28;20113;-75
2021/03/10 05:25:30;;;;;;;19.85;13.00;;;;;;;;;;5094697;28;20020;-75
2021/03/10 05:27:56;;;;;;;25.75;15.95;;;;;;;;;;5094605;28;20508;-76
2021/03/10 05:30:22;;;;;;;35.17;20.02;;;;;;;;;;5094411;28;20024;-77
2021/03/10 05:32:48;;;;;;;42.92;21.67;;;;;;;;;;5094744;28;20027;-75
2021/03/10 05:35:15;;;;;;;28.15;17.10;;;;;;;;;;5094447;28;20050;-75
2021/03/10 05:37:41;;;;;;;20.02;12.48;;;;;;;;;;5093974;28;20032;-75
2021/03/10 05:40:08;;;;;;;33.42;19.73;;;;;;;;;;5094176;28;20044;-75
2021/03/10 05:42:38;;;;;;;26.58;14.55;;;;;;;;;;5094128;28;20028;-75
2021/03/10 05:45:04;;;;;;;29.13;16.20;;;;;;;;;;5093718;28;20087;-75
2021/03/10 05:47:31;;;;;;;28.25;16.90;;;;;;;;;;5094100;28;20107;-75
2021/03/10 05:49:57;;;;;;;41.58;23.63;;;;;;;;;;5094077;28;20034;-75
2021/03/10 05:52:23;;;;;;;26.50;16.70;;;;;;;;;;5093852;28;20016;-74
2021/03/10 05:54:51;;;;;;;21.52;14.95;;;;;;;;;;5094098;28;20043;-74
2021/03/10 05:57:18;;;;;;;24.05;14.52;;;;;;;;;;5093834;28;20428;-75
2021/03/10 05:59:44;;;;;;;23.17;13.88;;;;;;;;;;5094169;28;20016;-75
2021/03/10 06:02:10;;;;;;;23.40;13.05;;;;;;;;;;5093780;28;20044;-75
2021/03/10 06:04:40;;;;;;;39.20;24.83;;;;;;;;;;5093391;28;20020;-74
2021/03/10 06:07:26;;;;;;;24.10;16.58;;;;;;;;;;5093734;28;20024;-75
2021/03/10 06:09:56;;;;;;;32.70;18.23;;;;;;;;;;5093806;28;20384;-75
2021/03/10 06:12:22;;;;;;;35.47;22.38;;;;;;;;;;5092259;28;20077;-76
2021/03/10 06:14:59;;;;;;;28.73;17.60;;;;;;;;;;5093713;28;20038;-77
2021/03/10 06:17:25;;;;;;;25.63;14.30;;;;;;;;;;5091513;28;20020;-73
2021/03/10 06:19:51;;;;;;;40.53;25.13;;;;;;;;;;5091722;28;20122;-72
2021/03/10 06:22:18;;;;;;;21.27;13.73;;;;;;;;;;5092696;28;20115;-76
2021/03/10 06:24:45;;;;;;;27.08;15.25;;;;;;;;;;5092448;28;20387;-73
2021/03/10 06:27:11;;;;;;;36.00;21.63;;;;;;;;;;5091687;28;20051;-73
2021/03/10 06:29:38;;;;;;;29.38;19.23;;;;;;;;;;5093356;28;20099;-74
2021/03/10 06:32:04;;;;;;;33.88;22.20;;;;;;;;;;5092948;28;20035;-74
2021/03/10 06:34:30;;;;;;;21.30;14.13;;;;;;;;;;5092843;28;20214;-75
2021/03/10 06:36:56;;;;;;;17.95;12.48;;;;;;;;;;5093055;28;20081;-74
2021/03/10 06:39:26;;;;;;;20.15;11.82;;;;;;;;;;5090588;28;20127;-75
2021/03/10 06:41:53;;;;;;;32.67;17.95;;;;;;;;;;5089472;28;20040;-73
2021/03/10 06:44:21;;;;;;;71.85;36.47;;;;;;;;;;5086902;28;20023;-69
2021/03/10 06:46:52;;;;;;;35.03;21.33;;;;;;;;;;5087946;28;20433;-69
2021/03/10 06:49:18;;;;;;;30.67;18.45;;;;;;;;;;5090045;28;20032;-72
2021/03/10 06:52:13;;;;;;;34.20;21.05;;;;;;;;;;5089848;28;20016;-69
2021/03/10 06:54:39;;;;;;;31.85;19.45;;;;;;;;;;5086486;28;20063;-69
2021/03/10 06:57:10;;;;;;;36.45;24.05;;;;;;;;;;5091287;28;20032;-71
2021/03/10 06:59:47;;;;;;;30.02;18.50;;;;;;;;;;5091493;28;20027;-70
2021/03/10 07:02:26;;;;;;;24.65;17.17;;;;;;;;;;5091237;28;20365;-70
2021/03/10 07:04:55;;;;;;;23.38;13.13;;;;;;;;;;5090293;28;20460;-70
2021/03/10 07:07:21;;;;;;;32.20;19.02;;;;;;;;;;5089309;28;20077;-71
2021/03/10 07:09:48;;;;;;;32.38;19.63;;;;;;;;;;5089684;28;20472;-70
2021/03/10 07:12:17;;;;;;;27.02;16.33;;;;;;;;;;5090625;28;20055;-68
2021/03/10 07:14:44;;;;;;;29.95;17.98;;;;;;;;;;5089424;28;20039;-70
2021/03/10 07:17:12;;;;;;;27.05;15.32;;;;;;;;;;5090911;28;20051;-77
2021/03/10 07:19:38;;;;;;;39.33;21.27;;;;;;;;;;5090754;28;20056;-74
2021/03/10 07:22:10;;;;;;;35.78;19.23;;;;;;;;;;5091084;28;20157;-76
2021/03/10 07:24:52;;;;;;;19.10;13.03;;;;;;;;;;5083512;28;20051;-74
2021/03/10 07:27:19;;;;;;;26.02;17.95;;;;;;;;;;5073994;28;20079;-73
2021/03/10 07:29:46;;;;;;;19.10;12.40;;;;;;;;;;5083787;28;20048;-74
2021/03/10 07:32:16;;;;;;;27.83;15.90;;;;;;;;;;5088336;28;20021;-77
2021/03/10 07:34:42;;;;;;;24.23;14.90;;;;;;;;;;5087057;28;20078;-76
2021/03/10 07:37:15;;;;;;;28.67;16.83;;;;;;;;;;5092738;28;20538;-72
2021/03/10 07:39:42;;;;;;;22.58;15.10;;;;;;;;;;5090525;28;20015;-75
2021/03/10 07:42:13;;;;;;;21.42;13.25;;;;;;;;;;5093953;28;20090;-69
2021/03/10 07:44:40;;;;;;;19.88;12.77;;;;;;;;;;5077106;28;20012;-74
2021/03/10 07:47:06;;;;;;;19.52;13.20;;;;;;;;;;5094154;28;20039;-74
2021/03/10 07:49:32;;;;;;;21.70;12.98;;;;;;;;;;5095396;28;20071;-70
2021/03/10 07:52:05;;;;;;;27.15;18.17;;;;;;;;;;5107450;28;20047;-71
2021/03/10 07:54:31;;;;;;;36.00;21.65;;;;;;;;;;5111396;28;20036;-73
2021/03/10 07:57:06;;;;;;;40.33;24.13;;;;;;;;;;5110854;28;20524;-72
2021/03/10 07:59:33;;;;;;;26.95;18.95;;;;;;;;;;5111717;28;20023;-73
2021/03/10 08:02:17;;;;;;;41.33;27.98;;;;;;;;;;5111534;28;20024;-74
2021/03/10 08:04:52;;;;;;;39.10;28.05;;;;;;;;;;5113347;28;20106;-72
2021/03/10 08:07:21;;;;;;;66.80;40.15;;;;;;;;;;5102222;27;20514;-73
2021/03/10 08:09:51;;;;;;;75.82;47.13;;;;;;;;;;5074792;28;20024;-77
2021/03/10 08:12:19;;;;;;;85.60;46.47;;;;;;;;;;5072663;28;20440;-70
2021/03/10 08:14:46;;;;;;;54.20;30.58;;;;;;;;;;5089122;28;20038;-70
2021/03/10 08:17:22;;;;;;;39.05;24.90;;;;;;;;;;5112077;28;20463;-68
2021/03/10 08:19:55;;;;;;;39.70;25.17;;;;;;;;;;5106165;28;20074;-70
2021/03/10 08:22:23;;;;;;;42.38;29.73;;;;;;;;;;5091757;28;20472;-68
2021/03/10 08:24:49;;;;;;;48.47;30.52;;;;;;;;;;5097767;28;20028;-70
2021/03/10 08:27:16;;;;;;;47.13;30.48;;;;;;;;;;5095863;28;20028;-70
2021/03/10 08:29:51;;;;;;;33.53;23.08;;;;;;;;;;5089160;28;20028;-70
2021/03/10 08:32:24;;;;;;;32.03;21.55;;;;;;;;;;5090108;28;20020;-70
2021/03/10 08:34:51;;;;;;;27.25;17.67;;;;;;;;;;5092403;28;20119;-71
2021/03/10 08:37:19;;;;;;;32.08;19.73;;;;;;;;;;5089551;28;20031;-73
2021/03/10 08:39:47;;;;;;;25.25;17.58;;;;;;;;;;5092011;28;20028;-72
2021/03/10 08:42:17;;;;;;;23.17;16.38;;;;;;;;;;5091315;28;20115;-67
2021/03/10 08:44:45;;;;;;;17.20;11.23;;;;;;;;;;5073389;28;20116;-70
2021/03/10 08:47:14;;;;;;;13.68;10.10;;;;;;;;;;5074650;28;20047;-71
2021/03/10 08:49:42;;;;;;;18.33;12.00;;;;;;;;;;5071256;28;20115;-71
2021/03/10 08:52:08;;;;;;;14.13;8.80;;;;;;;;;;5078778;28;20070;-69
2021/03/10 08:54:44;;;;;;;14.10;7.80;;;;;;;;;;5075106;28;20073;-72
2021/03/10 08:57:11;;;;;;;10.88;6.28;;;;;;;;;;5073342;28;20081;-72
2021/03/10 08:59:37;;;;;;;12.50;6.22;;;;;;;;;;5077186;28;20073;-74
2021/03/10 09:02:04;;;;;;;11.68;5.93;;;;;;;;;;5077495;28;20035;-72
2021/03/10 09:04:30;;;;;;;14.50;6.13;;;;;;;;;;5076063;28;20028;-75
2021/03/10 09:06:57;;;;;;;12.77;7.07;;;;;;;;;;5076902;28;20039;-72
2021/03/10 09:09:24;;;;;;;13.68;6.85;;;;;;;;;;5069936;28;20248;-75
2021/03/10 09:11:52;;;;;;;10.18;5.28;;;;;;;;;;5072335;28;20076;-76
2021/03/10 09:14:18;;;;;;;10.07;5.40;;;;;;;;;;5068865;28;20377;-75
2021/03/10 09:16:51;;;;;;;14.25;7.18;;;;;;;;;;5073974;28;20055;-73
2021/03/10 09:19:28;;;;;;;10.50;5.40;;;;;;;;;;5075858;28;20032;-74
2021/03/10 09:22:04;;;;;;;12.48;6.30;;;;;;;;;;5079389;28;20055;-73
2021/03/10 09:24:30;;;;;;;16.27;7.45;;;;;;;;;;5076569;28;20039;-72
2021/03/10 09:26:57;;;;;;;8.70;4.55;;;;;;;;;;5079784;28;20488;-72
2021/03/10 09:29:23;;;;;;;8.60;4.90;;;;;;;;;;5075521;28;20028;-75
2021/03/10 09:31:55;;;;;;;8.07;4.53;;;;;;;;;;5082208;28;20023;-74
2021/03/10 09:34:23;;;;;;;9.33;4.90;;;;;;;;;;5075215;28;20798;-75
2021/03/10 09:36:49;;;;;;;9.48;5.90;;;;;;;;;;5063054;28;20024;-76
2021/03/10 09:39:15;;;;;;;10.70;5.45;;;;;;;;;;5065768;28;20019;-76
2021/03/10 09:41:47;;;;;;;9.88;5.50;;;;;;;;;;5064077;28;20032;-75
2021/03/10 09:44:13;;;;;;;10.65;5.60;;;;;;;;;;5065335;28;20099;-74
2021/03/10 09:46:40;;;;;;;12.52;6.03;;;;;;;;;;5063366;28;20499;-77
2021/03/10 09:49:06;;;;;;;9.13;4.40;;;;;;;;;;5065650;28;20051;-77
2021/03/10 09:51:33;;;;;;;12.23;6.07;;;;;;;;;;5063862;28;20024;-76
2021/03/10 09:54:00;;;;;;;10.38;6.43;;;;;;;;;;5063746;28;20021;-79
2021/03/10 09:56:26;;;;;;;11.75;6.28;;;;;;;;;;5063092;28;20034;-78
2021/03/10 09:58:56;;;;;;;9.32;4.60;;;;;;;;;;5062976;28;20554;-78
2021/03/10 10:01:23;;;;;;;14.25;7.65;;;;;;;;;;5061869;28;20043;-72
2021/03/10 10:03:49;;;;;;;14.32;8.50;;;;;;;;;;5059373;28;20385;-73
2021/03/10 10:06:17;;;;;;;12.60;6.75;;;;;;;;;;5062496;28;20020;-69
2021/03/10 10:08:45;;;;;;;14.20;6.75;;;;;;;;;;5058721;28;20023;-70
2021/03/10 10:11:12;;;;;;;11.13;5.97;;;;;;;;;;5063992;28;20032;-70
2021/03/10 10:13:40;;;;;;;11.02;6.38;;;;;;;;;;5062694;28;20039;-69
2021/03/10 10:16:06;;;;;;;12.15;7.00;;;;;;;;;;5055424;28;20081;-70
2021/03/10 10:18:33;;;;;;;12.38;7.80;;;;;;;;;;5061189;28;20764;-70
2021/03/10 10:20:59;;;;;;;11.25;6.13;;;;;;;;;;5061797;28;20126;-73
2021/03/10 10:23:25;;;;;;;16.88;9.35;;;;;;;;;;5063526;28;20032;-72
2021/03/10 10:25:51;;;;;;;16.30;9.98;;;;;;;;;;5060948;28;20107;-70
2021/03/10 10:28:17;;;;;;;13.18;8.23;;;;;;;;;;5064187;28;20543;-69
2021/03/10 10:30:44;;;;;;;14.95;7.80;;;;;;;;;;5058666;28;20059;-70
2021/03/10 10:33:10;;;;;;;14.25;8.50;;;;;;;;;;5060529;28;20016;-70
2021/03/10 10:35:36;;;;;;;16.35;9.63;;;;;;;;;;5063935;28;20183;-72
2021/03/10 10:38:02;;;;;;;12.38;7.18;;;;;;;;;;5061963;28;20019;-73
2021/03/10 10:40:28;;;;;;;20.02;10.85;;;;;;;;;;5062031;28;20462;-72
2021/03/10 10:42:55;;;;;;;11.88;6.75;;;;;;;;;;5063393;28;20028;-71
2021/03/10 10:45:21;;;;;;;11.18;6.30;;;;;;;;;;5058655;28;20028;-68
2021/03/10 10:47:47;;;;;;;8.43;4.57;;;;;;;;;;5068953;28;20024;-72
2021/03/10 10:50:15;;;;;;;10.75;5.25;;;;;;;;;;5095421;28;20038;-72
2021/03/10 10:52:41;;;;;;;9.73;5.30;;;;;;;;;;5057685;28;20070;-72
2021/03/10 10:55:08;;;;;;;15.13;7.57;;;;;;;;;;5058252;28;21107;-72
2021/03/10 10:57:35;;;;;;;10.80;5.57;;;;;;;;;;5062346;28;20130;-72
2021/03/10 11:00:01;;;;;;;8.52;4.75;;;;;;;;;;5057081;28;20027;-71
2021/03/10 11:02:27;;;;;;;10.10;4.90;;;;;;;;;;5057289;28;20489;-71
2021/03/10 11:04:53;;;;;;;9.85;5.85;;;;;;;;;;5061862;28;20801;-72
2021/03/10 11:07:19;;;;;;;9.48;4.35;;;;;;;;;;5064310;28;20443;-71
2021/03/10 11:09:46;;;;;;;11.80;6.57;;;;;;;;;;5063144;28;20015;-73
2021/03/10 11:12:12;;;;;;;13.27;7.15;;;;;;;;;;5062369;28;20028;-73
2021/03/10 11:14:41;;;;;;;10.10;5.13;;;;;;;;;;5064336;28;20020;-73
2021/03/10 11:17:08;;;;;;;11.85;5.30;;;;;;;;;;5060247;28;20399;-73
2021/03/10 11:19:36;;;;;;;8.50;4.30;;;;;;;;;;5066308;28;20035;-79
2021/03/10 11:22:04;;;;;;;10.65;5.55;;;;;;;;;;5063467;28;20283;-79
2021/03/10 11:24:30;;;;;;;15.90;9.30;;;;;;;;;;5066481;28;20027;-76
2021/03/10 11:26:57;;;;;;;11.40;6.38;;;;;;;;;;5066056;28;20567;-76
2021/03/10 11:29:23;;;;;;;8.70;4.97;;;;;;;;;;5065683;28;20591;-77
2021/03/10 11:31:50;;;;;;;12.48;6.93;;;;;;;;;;5065276;28;20050;-76
2021/03/10 11:34:16;;;;;;;11.43;5.93;;;;;;;;;;5063770;28;20051;-73
2021/03/10 11:36:42;;;;;;;11.63;5.95;;;;;;;;;;5070829;28;20019;-72
2021/03/10 11:39:08;;;;;;;15.48;6.80;;;;;;;;;;5065343;28;20008;-71
2021/03/10 11:41:35;;;;;;;21.90;8.55;;;;;;;;;;5065951;28;20035;-72
2021/03/10 11:44:02;;;;;;;16.27;6.10;;;;;;;;;;5066927;28;20044;-73
2021/03/10 11:46:29;;;;;;;13.23;7.90;;;;;;;;;;5070363;28;20020;-70
2021/03/10 11:48:55;;;;;;;10.52;5.88;;;;;;;;;;5068916;28;20019;-72
2021/03/10 11:51:21;;;;;;;9.48;4.32;;;;;;;;;;5067826;28;20051;-71
2021/03/10 11:53:47;;;;;;;12.05;6.03;;;;;;;;;;5090250;28;20580;-75
2021/03/10 11:56:14;;;;;;;12.63;7.45;;;;;;;;;;5094175;28;20464;-74
2021/03/10 11:58:40;;;;;;;13.85;7.47;;;;;;;;;;5095400;28;20024;-73
2021/03/10 12:01:06;;;;;;;15.27;10.10;;;;;;;;;;5092633;28;20051;-74
2021/03/10 12:03:37;;;;;;;15.15;8.25;;;;;;;;;;5092533;28;20024;-73
2021/03/10 12:06:04;;;;;;;12.85;6.88;;;;;;;;;;5093892;28;20031;-77
2021/03/10 12:08:30;;;;;;;8.57;5.07;;;;;;;;;;5095730;28;20030;-77
2021/03/10 12:10:56;;;;;;;13.68;6.68;;;;;;;;;;5093969;28;20058;-74
2021/03/10 12:13:22;;;;;;;18.90;9.40;;;;;;;;;;5094516;28;20024;-76
2021/03/10 12:15:49;;;;;;;12.73;6.35;;;;;;;;;;5110679;28;20072;-78
2021/03/10 12:18:15;;;;;;;14.30;8.63;;;;;;;;;;5114013;28;20019;-75
2021/03/10 12:20:41;;;;;;;13.98;6.43;;;;;;;;;;5103479;28;20123;-77
2021/03/10 12:23:07;;;;;;;10.48;5.22;;;;;;;;;;5095096;28;20113;-73
2021/03/10 12:25:33;;;;;;;19.00;9.32;;;;;;;;;;5094885;28;20020;-73
2021/03/10 12:28:02;;;;;;;9.68;4.93;;;;;;;;;;5095262;28;20028;-73
2021/03/10 12:30:29;;;;;;;13.10;7.50;;;;;;;;;;5094097;28;20044;-74
2021/03/10 12:32:55;;;;;;;9.43;5.32;;;;;;;;;;5094182;28;20020;-76
2021/03/10 12:35:27;;;;;;;8.75;5.15;;;;;;;;;;5094895;28;20498;-76
2021/03/10 12:37:53;;;;;;;10.90;5.75;;;;;;;;;;5093419;28;20024;-78
2021/03/10 12:40:19;;;;;;;9.15;5.25;;;;;;;;;;5091279;28;20021;-77
2021/03/10 12:42:46;;;;;;;11.10;5.85;;;;;;;;;;5083881;28;20028;-77
2021/03/10 12:45:12;;;;;;;11.05;6.28;;;;;;;;;;5081348;28;20027;-76
2021/03/10 12:47:38;;;;;;;10.65;5.47;;;;;;;;;;5086643;28;20792;-76
2021/03/10 12:50:05;;;;;;;13.30;6.72;;;;;;;;;;5092645;28;20024;-74
2021/03/10 12:52:33;;;;;;;17.00;7.88;;;;;;;;;;5094582;28;20016;-76
2021/03/10 12:54:59;;;;;;;14.75;8.05;;;;;;;;;;5085890;28;20051;-74
2021/03/10 12:57:25;;;;;;;15.57;8.65;;;;;;;;;;5082513;28;20020;-74
2021/03/10 12:59:51;;;;;;;15.50;7.85;;;;;;;;;;5093915;28;20114;-75
2021/03/10 13:02:17;;;;;;;17.35;8.00;;;;;;;;;;5094771;28;20043;-74
2021/03/10 13:04:44;;;;;;;20.63;11.05;;;;;;;;;;5094527;28;20024;-74
2021/03/10 13:07:10;;;;;;;13.43;7.22;;;;;;;;;;5093888;28;20046;-74
2021/03/10 13:09:37;;;;;;;9.90;4.78;;;;;;;;;;5094316;28;20027;-75
2021/03/10 13:12:04;;;;;;;11.82;6.68;;;;;;;;;;5094603;28;20024;-76
2021/03/10 13:14:30;;;;;;;13.75;6.45;;;;;;;;;;5092097;28;20495;-74
2021/03/10 13:16:56;;;;;;;18.27;8.90;;;;;;;;;;5094347;28;20079;-75
2021/03/10 13:19:22;;;;;;;13.27;7.60;;;;;;;;;;5092888;28;20024;-74
2021/03/10 13:21:48;;;;;;;8.70;4.38;;;;;;;;;;5092851;28;20048;-74
2021/03/10 13:24:15;;;;;;;12.43;6.82;;;;;;;;;;5094108;28;20497;-75
2021/03/10 13:26:41;;;;;;;10.07;5.97;;;;;;;;;;5092837;28;20032;-74
2021/03/10 13:29:07;;;;;;;10.00;3.92;;;;;;;;;;5093125;28;20031;-76
2021/03/10 13:31:34;;;;;;;10.43;5.40;;;;;;;;;;5093774;28;20032;-74
2021/03/10 13:34:00;;;;;;;8.63;4.70;;;;;;;;;;5094295;28;20085;-74
2021/03/10 13:36:26;;;;;;;16.30;6.07;;;;;;;;;;5093835;28;20016;-74
2021/03/10 13:38:53;;;;;;;13.13;6.15;;;;;;;;;;5094124;28;20028;-75
2021/03/10 13:41:19;;;;;;;11.07;4.80;;;;;;;;;;5093659;28;20091;-75
2021/03/10 13:43:45;;;;;;;8.80;5.45;;;;;;;;;;5094053;28;20024;-76
2021/03/10 13:46:11;;;;;;;14.82;7.57;;;;;;;;;;5093152;28;20032;-73
2021/03/10 13:48:37;;;;;;;10.73;6.05;;;;;;;;;;5093836;28;20384;-73
2021/03/10 13:51:04;;;;;;;13.57;7.80;;;;;;;;;;5093276;28;20027;-75
2021/03/10 13:53:30;;;;;;;9.50;4.72;;;;;;;;;;5094093;28;20502;-75
2021/03/10 13:55:56;;;;;;;13.20;6.68;;;;;;;;;;5093624;28;20042;-75
2021/03/10 13:58:22;;;;;;;11.18;6.50;;;;;;;;;;5093807;28;20065;-75
2021/03/10 14:00:49;;;;;;;10.93;6.80;;;;;;;;;;5092682;28;20020;-74
2021/03/10 14:03:15;;;;;;;11.88;7.60;;;;;;;;;;5093626;28;20032;-75
2021/03/10 14:05:41;;;;;;;10.57;6.45;;;;;;;;;;5094009;28;20044;-74
2021/03/10 14:08:08;;;;;;;12.80;7.43;;;;;;;;;;5093828;28;20031;-75
2021/03/10 14:10:34;;;;;;;12.02;6.78;;;;;;;;;;5093392;28;20026;-75
2021/03/10 14:13:00;;;;;;;15.13;8.18;;;;;;;;;;5093623;28;20032;-75
2021/03/10 14:15:27;;;;;;;12.73;8.00;;;;;;;;;;5093721;28;20051;-76
2021/03/10 14:17:53;;;;;;;10.85;6.30;;;;;;;;;;5093180;28;20016;-75
2021/03/10 14:20:20;;;;;;;16.90;8.18;;;;;;;;;;5093268;28;20044;-75
2021/03/10 14:22:50;;;;;;;19.67;10.43;;;;;;;;;;5093349;28;20032;-75
2021/03/10 14:25:17;;;;;;;13.40;8.13;;;;;;;;;;5092136;28;20383;-75
2021/03/10 14:27:43;;;;;;;10.23;6.70;;;;;;;;;;5093611;28;20416;-74